createdAt,value
2022-08-28T00:02:07.206Z,54.74
2022-08-28T00:04:35.863Z,55.05
2022-08-28T00:07:03.486Z,55.17
2022-08-28T00:09:30.729Z,54.43
2022-08-28T00:11:58.283Z,55.50
2022-08-28T00:14:25.517Z,57.54
2022-08-28T00:16:52.923Z,56.46
2022-08-28T00:19:20.937Z,55.97
2022-08-28T00:21:48.170Z,55.39
2022-08-28T00:24:15.515Z,57.25
2022-08-28T00:27:01.871Z,56.93
2022-08-28T00:29:29.426Z,56.64
2022-08-28T00:31:57.572Z,55.69
2022-08-28T00:34:28.481Z,56.74
2022-08-28T00:37:01.157Z,56.35
2022-08-28T00:39:28.521Z,55.08
2022-08-28T00:41:58.000Z,55.53
2022-08-28T00:44:26.659Z,55.31
2022-08-28T00:46:55.278Z,55.29
2022-08-28T00:49:26.680Z,56.08
2022-08-28T00:52:10.790Z,55.90
2022-08-28T00:54:54.442Z,55.86
2022-08-28T00:57:35.943Z,54.88
2022-08-28T01:00:06.008Z,56.09
2022-08-28T01:02:33.593Z,55.56
2022-08-28T01:05:00.952Z,56.64
2022-08-28T01:07:28.239Z,57.26
2022-08-28T01:09:55.805Z,57.41
2022-08-28T01:12:25.218Z,57.19
2022-08-28T01:14:53.618Z,56.64
2022-08-28T01:17:21.649Z,57.31
2022-08-28T01:19:56.402Z,56.75
2022-08-28T01:22:37.407Z,57.17
2022-08-28T01:25:10.585Z,56.67
2022-08-28T01:27:41.889Z,56.13
2022-08-28T01:30:10.718Z,57.06
2022-08-28T01:32:39.443Z,56.87
2022-08-28T01:35:09.634Z,56.16
2022-08-28T01:37:37.193Z,56.21
2022-08-28T01:40:06.266Z,55.43
2022-08-28T01:42:37.826Z,56.78
2022-08-28T01:45:06.332Z,56.00
2022-08-28T01:47:33.579Z,56.42
2022-08-28T01:50:00.815Z,57.29
2022-08-28T01:52:29.048Z,57.80
2022-08-28T01:54:57.489Z,56.83
2022-08-28T01:57:25.307Z,57.37
2022-08-28T01:59:54.417Z,58.20
2022-08-28T02:02:22.752Z,57.44
2022-08-28T02:04:50.653Z,57.57
2022-08-28T02:07:17.972Z,57.33
2022-08-28T02:09:45.185Z,57.25
2022-08-28T02:12:12.711Z,58.77
2022-08-28T02:14:40.021Z,57.28
2022-08-28T02:17:07.238Z,57.03
2022-08-28T02:19:34.785Z,56.85
2022-08-28T02:22:04.020Z,59.21
2022-08-28T02:24:31.299Z,59.32
2022-08-28T02:26:58.839Z,58.37
2022-08-28T02:29:27.250Z,57.61
2022-08-28T02:31:55.883Z,58.02
2022-08-28T02:34:23.833Z,57.61
2022-08-28T02:36:51.068Z,57.04
2022-08-28T02:39:18.272Z,57.08
2022-08-28T02:41:45.803Z,57.56
2022-08-28T02:44:13.037Z,58.09
2022-08-28T02:46:40.242Z,60.97
2022-08-28T02:49:07.763Z,62.80
2022-08-28T02:51:35.340Z,65.05
2022-08-28T02:54:02.933Z,65.01
2022-08-28T02:56:31.098Z,65.59
2022-08-28T02:58:58.454Z,63.02
2022-08-28T03:01:25.849Z,63.43
2022-08-28T03:03:53.418Z,62.07
2022-08-28T03:06:20.962Z,61.26
2022-08-28T03:08:48.238Z,61.97
2022-08-28T03:11:15.757Z,63.67
2022-08-28T03:13:43.032Z,63.67
2022-08-28T03:16:10.252Z,62.97
2022-08-28T03:18:38.251Z,63.18
2022-08-28T03:21:05.545Z,63.20
2022-08-28T03:23:32.828Z,61.99
2022-08-28T03:26:01.787Z,62.00
2022-08-28T03:28:31.415Z,61.98
2022-08-28T03:30:58.662Z,61.60
2022-08-28T03:33:26.862Z,61.24
2022-08-28T03:35:55.625Z,61.44
2022-08-28T03:38:22.867Z,62.38
2022-08-28T03:40:53.539Z,62.55
2022-08-28T03:43:23.277Z,61.24
2022-08-28T03:45:59.001Z,61.54
2022-08-28T03:48:30.377Z,60.32
2022-08-28T03:50:57.977Z,59.55
2022-08-28T03:53:25.942Z,58.98
2022-08-28T03:55:53.694Z,59.16
2022-08-28T03:58:21.001Z,59.02
2022-08-28T04:00:48.288Z,60.42
2022-08-28T04:03:16.124Z,58.98
2022-08-28T04:05:44.040Z,59.61
2022-08-28T04:08:16.065Z,59.90
2022-08-28T04:10:44.228Z,59.49
2022-08-28T04:13:12.357Z,58.71
2022-08-28T04:15:39.793Z,58.48
2022-08-28T04:18:07.723Z,59.24
2022-08-28T04:20:34.953Z,59.15
2022-08-28T04:23:05.931Z,59.05
2022-08-28T04:25:33.490Z,60.39
2022-08-28T04:28:01.126Z,60.40
2022-08-28T04:30:28.448Z,61.60
2022-08-28T04:32:56.075Z,61.39
2022-08-28T04:35:23.355Z,59.73
2022-08-28T04:37:50.597Z,60.85
2022-08-28T04:40:19.333Z,60.93
2022-08-28T04:42:47.622Z,60.03
2022-08-28T04:45:14.888Z,60.47
2022-08-28T04:47:43.452Z,59.87
2022-08-28T04:50:11.105Z,59.99
2022-08-28T04:52:38.330Z,59.24
2022-08-28T04:55:06.101Z,58.42
2022-08-28T04:57:36.371Z,57.42
2022-08-28T05:00:05.172Z,57.27
2022-08-28T05:02:32.783Z,57.17
2022-08-28T05:05:00.127Z,57.35
2022-08-28T05:07:27.408Z,57.53
2022-08-28T05:09:54.919Z,56.67
2022-08-28T05:12:22.218Z,56.33
2022-08-28T05:14:49.518Z,56.21
2022-08-28T05:17:17.108Z,56.75
2022-08-28T05:19:44.501Z,56.65
2022-08-28T05:22:11.812Z,56.84
2022-08-28T05:24:40.124Z,56.86
2022-08-28T05:27:07.650Z,56.86
2022-08-28T05:29:34.953Z,57.07
2022-08-28T05:32:03.007Z,56.73
2022-08-28T05:34:31.377Z,57.32
2022-08-28T05:36:58.731Z,57.70
2022-08-28T05:39:26.383Z,57.11
2022-08-28T05:41:53.726Z,56.23
2022-08-28T05:44:21.581Z,55.92
2022-08-28T05:46:49.746Z,56.27
2022-08-28T05:49:18.402Z,56.00
2022-08-28T05:51:46.098Z,56.05
2022-08-28T05:54:15.002Z,55.81
2022-08-28T05:56:44.679Z,55.72
2022-08-28T05:59:12.417Z,55.57
2022-08-28T06:01:41.288Z,55.21
2022-08-28T06:04:10.619Z,54.97
2022-08-28T06:06:39.547Z,54.83
2022-08-28T06:09:08.235Z,54.78
2022-08-28T06:11:36.036Z,53.97
2022-08-28T06:14:04.765Z,54.02
2022-08-28T06:16:32.577Z,53.60
2022-08-28T06:19:00.785Z,53.42
2022-08-28T06:21:28.811Z,53.20
2022-08-28T06:23:56.488Z,52.90
2022-08-28T06:26:24.144Z,52.86
2022-08-28T06:28:53.155Z,52.66
2022-08-28T06:31:26.509Z,52.45
2022-08-28T06:33:56.399Z,51.91
2022-08-28T06:36:24.344Z,51.67
2022-08-28T06:38:51.757Z,51.52
2022-08-28T06:41:19.777Z,51.37
2022-08-28T06:43:47.105Z,50.51
2022-08-28T06:46:14.445Z,50.77
2022-08-28T06:48:42.110Z,50.73
2022-08-28T06:51:10.318Z,50.64
2022-08-28T06:53:38.092Z,49.96
2022-08-28T06:56:08.556Z,50.12
2022-08-28T06:58:37.510Z,50.35
2022-08-28T07:01:25.716Z,50.74
2022-08-28T07:03:53.911Z,50.45
2022-08-28T07:06:21.956Z,50.54
2022-08-28T07:08:49.640Z,49.33
2022-08-28T07:11:19.363Z,47.73
2022-08-28T07:13:46.958Z,47.79
2022-08-28T07:16:14.908Z,46.96
2022-08-28T07:18:42.829Z,46.95
2022-08-28T07:21:12.510Z,47.17
2022-08-28T07:23:40.630Z,47.59
2022-08-28T07:26:09.772Z,47.85
2022-08-28T07:28:37.705Z,47.21
2022-08-28T07:31:06.156Z,47.35
2022-08-28T07:33:34.116Z,47.52
2022-08-28T07:36:01.724Z,48.58
2022-08-28T07:38:29.012Z,50.67
2022-08-28T07:40:57.250Z,52.21
2022-08-28T07:43:43.383Z,51.00
2022-08-28T07:46:14.380Z,51.82
2022-08-28T07:48:41.877Z,52.01
2022-08-28T07:51:09.941Z,49.84
2022-08-28T07:53:37.822Z,50.30
2022-08-28T07:56:05.569Z,49.33
2022-08-28T07:58:32.948Z,49.71
2022-08-28T08:01:01.325Z,50.07
2022-08-28T08:03:30.106Z,50.14
2022-08-28T08:05:58.897Z,50.34
2022-08-28T08:08:26.293Z,50.98
2022-08-28T08:11:01.227Z,50.37
2022-08-28T08:13:32.397Z,50.33
2022-08-28T08:16:11.440Z,50.45
2022-08-28T08:18:39.167Z,50.75
2022-08-28T08:21:07.584Z,48.87
2022-08-28T08:23:35.033Z,48.23
2022-08-28T08:26:03.909Z,49.48
2022-08-28T08:28:32.758Z,49.59
2022-08-28T08:31:11.006Z,49.01
2022-08-28T08:33:39.535Z,48.62
2022-08-28T08:36:07.438Z,48.61
2022-08-28T08:38:34.868Z,48.02
2022-08-28T08:41:04.991Z,48.58
2022-08-28T08:43:33.869Z,46.85
2022-08-28T08:46:01.244Z,46.09
2022-08-28T08:48:32.869Z,46.74
2022-08-28T08:51:04.584Z,45.90
2022-08-28T08:53:34.954Z,46.20
2022-08-28T08:56:05.661Z,45.43
2022-08-28T08:58:34.809Z,46.68
2022-08-28T09:01:14.987Z,46.19
2022-08-28T09:03:53.062Z,46.67
2022-08-28T09:06:40.714Z,46.25
2022-08-28T09:09:13.832Z,46.16
2022-08-28T09:11:44.664Z,45.48
2022-08-28T09:14:14.272Z,45.41
2022-08-28T09:16:44.587Z,45.90
2022-08-28T09:19:12.929Z,45.67
2022-08-28T09:21:41.699Z,45.23
2022-08-28T09:24:22.501Z,45.13
2022-08-28T09:26:55.685Z,44.75
2022-08-28T09:29:31.539Z,45.30
2022-08-28T09:31:59.473Z,44.41
2022-08-28T09:34:29.550Z,44.28
2022-08-28T09:36:58.815Z,43.37
2022-08-28T09:39:28.410Z,43.53
2022-08-28T09:42:14.720Z,44.29
2022-08-28T09:44:51.322Z,43.55
2022-08-28T09:47:34.775Z,44.06
2022-08-28T09:50:14.514Z,45.45
2022-08-28T09:52:41.853Z,44.03
2022-08-28T09:55:10.960Z,43.98
2022-08-28T09:57:38.818Z,42.72
2022-08-28T10:00:06.741Z,42.72
2022-08-28T10:02:45.549Z,43.96
2022-08-28T10:05:16.266Z,43.04
2022-08-28T10:07:48.785Z,43.92
2022-08-28T10:10:32.731Z,43.15
2022-08-28T10:13:03.133Z,42.55
2022-08-28T10:15:43.335Z,41.49
2022-08-28T10:18:14.304Z,42.16
2022-08-28T10:21:01.420Z,41.61
2022-08-28T10:23:31.909Z,41.96
2022-08-28T10:26:15.893Z,41.81
2022-08-28T10:28:43.206Z,41.65
2022-08-28T10:31:31.667Z,41.08
2022-08-28T10:33:59.430Z,41.49
2022-08-28T10:36:33.831Z,40.86
2022-08-28T10:39:23.940Z,39.92
2022-08-28T10:41:54.470Z,39.70
2022-08-28T10:44:23.822Z,39.54
2022-08-28T10:46:55.706Z,40.91
2022-08-28T10:49:34.635Z,40.29
2022-08-28T10:52:02.259Z,39.98
2022-08-28T10:54:41.111Z,40.64
2022-08-28T10:57:08.916Z,41.36
2022-08-28T10:59:41.790Z,40.65
2022-08-28T11:02:10.683Z,41.76
2022-08-28T11:04:37.934Z,40.86
2022-08-28T11:07:06.244Z,40.45
2022-08-28T11:09:38.679Z,39.78
2022-08-28T11:12:10.322Z,37.99
2022-08-28T11:14:47.068Z,36.70
2022-08-28T11:17:21.882Z,38.37
2022-08-28T11:20:01.533Z,39.21
2022-08-28T11:22:38.432Z,39.33
2022-08-28T11:25:16.656Z,38.49
2022-08-28T11:28:02.946Z,37.53
2022-08-28T11:30:35.622Z,38.46
2022-08-28T11:33:04.328Z,38.21
2022-08-28T11:35:34.876Z,38.60
2022-08-28T11:38:02.293Z,37.84
2022-08-28T11:40:32.666Z,38.31
2022-08-28T11:43:16.126Z,37.56
2022-08-28T11:45:50.982Z,36.39
2022-08-28T11:48:34.576Z,35.69
2022-08-28T11:51:03.669Z,35.10
2022-08-28T11:53:34.293Z,33.71
2022-08-28T11:56:31.417Z,34.82
2022-08-28T11:59:18.432Z,33.68
2022-08-28T12:01:46.328Z,35.97
2022-08-28T12:04:19.053Z,34.63
2022-08-28T12:06:54.579Z,36.96
2022-08-28T12:09:25.958Z,36.71
2022-08-28T12:11:55.073Z,37.66
2022-08-28T12:14:25.916Z,35.50
2022-08-28T12:16:59.187Z,34.37
2022-08-28T12:19:28.536Z,34.77
2022-08-28T12:21:56.084Z,33.05
2022-08-28T12:24:24.460Z,32.27
2022-08-28T12:26:57.109Z,33.55
2022-08-28T12:29:39.042Z,33.15
2022-08-28T12:32:16.522Z,32.02
2022-08-28T12:34:50.191Z,33.69
2022-08-28T12:37:50.975Z,32.69
2022-08-28T12:40:25.662Z,33.51
2022-08-28T12:42:55.541Z,33.80
2022-08-28T12:45:24.735Z,34.54
2022-08-28T12:47:53.298Z,33.94
2022-08-28T12:50:26.353Z,33.60
2022-08-28T12:53:13.688Z,33.76
2022-08-28T12:55:41.634Z,35.00
2022-08-28T12:58:30.491Z,35.52
2022-08-28T13:00:59.234Z,34.64
2022-08-28T13:03:26.570Z,34.97
2022-08-28T13:06:04.723Z,34.59
2022-08-28T13:08:33.070Z,35.59
2022-08-28T13:11:00.461Z,34.13
2022-08-28T13:13:35.857Z,35.33
2022-08-28T13:16:04.606Z,34.26
2022-08-28T13:18:50.384Z,34.29
2022-08-28T13:21:33.993Z,33.47
2022-08-28T13:24:24.342Z,34.92
2022-08-28T13:27:05.877Z,34.55
2022-08-28T13:29:33.224Z,36.17
2022-08-28T13:32:02.040Z,34.92
2022-08-28T13:34:30.212Z,35.24
2022-08-28T13:37:01.352Z,34.94
2022-08-28T13:39:29.646Z,34.42
2022-08-28T13:41:58.075Z,35.41
2022-08-28T13:44:34.252Z,35.45
2022-08-28T13:47:02.601Z,35.25
2022-08-28T13:49:30.122Z,35.13
2022-08-28T13:51:58.276Z,35.28
2022-08-28T13:54:26.710Z,34.50
2022-08-28T13:56:55.931Z,34.54
2022-08-28T13:59:23.517Z,34.19
2022-08-28T14:02:11.899Z,35.02
2022-08-28T14:04:40.159Z,34.94
2022-08-28T14:07:08.192Z,36.56
2022-08-28T14:09:35.749Z,35.36
2022-08-28T14:12:04.306Z,34.87
2022-08-28T14:14:32.353Z,34.35
2022-08-28T14:17:00.679Z,34.68
2022-08-28T14:19:28.545Z,34.16
2022-08-28T14:21:55.836Z,34.45
2022-08-28T14:24:24.716Z,34.23
2022-08-28T14:26:52.814Z,33.87
2022-08-28T14:29:20.640Z,34.75
2022-08-28T14:31:47.985Z,34.89
2022-08-28T14:34:17.016Z,34.11
2022-08-28T14:36:44.249Z,35.50
2022-08-28T14:39:12.461Z,34.85
2022-08-28T14:41:44.490Z,34.35
2022-08-28T14:44:12.181Z,35.06
2022-08-28T14:46:42.187Z,34.79
2022-08-28T14:49:10.446Z,35.44
2022-08-28T14:51:38.994Z,34.77
2022-08-28T14:54:07.799Z,35.27
2022-08-28T14:56:35.396Z,36.01
2022-08-28T14:59:04.430Z,35.57
2022-08-28T15:01:39.697Z,35.21
2022-08-28T15:04:12.284Z,36.39
2022-08-28T15:06:41.748Z,36.28
2022-08-28T15:09:09.938Z,35.87
2022-08-28T15:11:37.514Z,35.91
2022-08-28T15:14:06.487Z,35.87
2022-08-28T15:16:35.049Z,35.78
2022-08-28T15:19:03.100Z,35.64
2022-08-28T15:21:32.769Z,35.89
2022-08-28T15:24:00.922Z,36.85
2022-08-28T15:26:29.025Z,36.76
2022-08-28T15:29:02.249Z,36.31
2022-08-28T15:31:30.627Z,36.65
2022-08-28T15:33:59.175Z,36.63
2022-08-28T15:36:26.399Z,37.02
2022-08-28T15:39:12.516Z,39.00
2022-08-28T15:41:40.171Z,39.56
2022-08-28T15:44:08.646Z,39.19
2022-08-28T15:46:37.438Z,39.97
2022-08-28T15:49:06.364Z,39.72
2022-08-28T15:51:36.551Z,40.24
2022-08-28T15:54:05.297Z,40.31
2022-08-28T15:56:32.781Z,39.90
2022-08-28T15:59:00.010Z,40.45
2022-08-28T16:01:27.625Z,41.43
2022-08-28T16:03:55.973Z,40.13
2022-08-28T16:06:23.309Z,40.51
2022-08-28T16:08:50.647Z,39.49
2022-08-28T16:11:19.062Z,40.50
2022-08-28T16:13:46.559Z,39.67
2022-08-28T16:16:13.788Z,40.35
2022-08-28T16:18:41.346Z,40.24
2022-08-28T16:21:08.627Z,39.93
2022-08-28T16:23:36.036Z,40.54
2022-08-28T16:26:03.963Z,39.60
2022-08-28T16:28:32.443Z,40.11
2022-08-28T16:31:02.966Z,39.55
2022-08-28T16:33:35.207Z,40.35
2022-08-28T16:36:10.719Z,40.50
2022-08-28T16:38:42.068Z,41.27
2022-08-28T16:41:13.512Z,40.74
2022-08-28T16:43:41.039Z,41.33
2022-08-28T16:46:12.426Z,41.14
2022-08-28T16:48:39.934Z,41.98
2022-08-28T16:51:07.850Z,41.58
2022-08-28T16:53:35.149Z,41.42
2022-08-28T16:56:03.105Z,41.61
2022-08-28T16:58:30.802Z,41.43
2022-08-28T17:00:58.389Z,41.45
2022-08-28T17:03:26.813Z,41.67
2022-08-28T17:05:57.677Z,42.41
2022-08-28T17:08:25.017Z,41.74
2022-08-28T17:10:52.521Z,41.72
2022-08-28T17:13:20.432Z,42.33
2022-08-28T17:15:47.964Z,42.04
2022-08-28T17:18:15.540Z,41.70
2022-08-28T17:21:02.144Z,42.46
2022-08-28T17:23:29.567Z,42.07
2022-08-28T17:25:57.510Z,41.82
2022-08-28T17:28:25.101Z,41.55
2022-08-28T17:30:52.585Z,41.63
2022-08-28T17:33:20.225Z,41.89
2022-08-28T17:35:50.378Z,41.61
2022-08-28T17:38:20.097Z,41.47
2022-08-28T17:40:47.752Z,41.52
2022-08-28T17:43:15.353Z,42.64
2022-08-28T17:45:43.169Z,41.87
2022-08-28T17:48:10.454Z,41.86
2022-08-28T17:50:38.031Z,42.36
2022-08-28T17:53:05.745Z,42.58
2022-08-28T17:55:33.236Z,42.56
2022-08-28T17:58:00.861Z,42.80
2022-08-28T18:00:28.883Z,42.60
2022-08-28T18:02:56.991Z,42.85
2022-08-28T18:05:24.603Z,42.80
2022-08-28T18:07:52.761Z,43.09
2022-08-28T18:10:22.011Z,42.65
2022-08-28T18:12:49.659Z,41.96
2022-08-28T18:15:17.735Z,42.39
2022-08-28T18:17:50.671Z,42.74
2022-08-28T18:20:18.839Z,42.96
2022-08-28T18:22:46.918Z,43.26
2022-08-28T18:25:34.499Z,43.17
2022-08-28T18:28:03.289Z,42.99
2022-08-28T18:30:30.993Z,43.46
2022-08-28T18:32:59.107Z,43.50
2022-08-28T18:35:31.549Z,43.91
2022-08-28T18:38:00.278Z,43.82
2022-08-28T18:40:28.730Z,43.63
2022-08-28T18:42:56.551Z,43.80
2022-08-28T18:45:24.897Z,44.70
2022-08-28T18:47:53.038Z,44.20
2022-08-28T18:50:23.919Z,44.76
2022-08-28T18:52:52.034Z,44.61
2022-08-28T18:55:20.646Z,44.17
2022-08-28T18:57:48.372Z,45.15
2022-08-28T19:00:19.214Z,44.41
2022-08-28T19:02:47.564Z,45.74
2022-08-28T19:05:16.106Z,45.71
2022-08-28T19:07:43.938Z,45.42
2022-08-28T19:10:28.345Z,45.33
2022-08-28T19:12:59.570Z,45.75
2022-08-28T19:15:28.744Z,45.74
2022-08-28T19:17:56.839Z,45.78
2022-08-28T19:20:24.643Z,46.49
2022-08-28T19:22:53.102Z,46.63
2022-08-28T19:25:27.444Z,46.82
2022-08-28T19:27:59.374Z,47.26
2022-08-28T19:30:28.600Z,47.48
2022-08-28T19:32:56.646Z,48.14
2022-08-28T19:35:24.969Z,48.32
2022-08-28T19:37:53.273Z,47.11
2022-08-28T19:40:21.597Z,47.47
2022-08-28T19:42:50.333Z,47.88
2022-08-28T19:45:18.187Z,48.03
2022-08-28T19:47:47.417Z,48.16
2022-08-28T19:50:15.537Z,48.53
2022-08-28T19:52:43.715Z,49.75
2022-08-28T19:55:16.830Z,49.58
2022-08-28T19:57:44.748Z,50.08
2022-08-28T20:00:15.629Z,49.75
2022-08-28T20:02:44.122Z,50.37
2022-08-28T20:05:11.537Z,50.56
2022-08-28T20:07:39.102Z,50.60
2022-08-28T20:10:12.622Z,50.41
2022-08-28T20:12:45.085Z,50.75
2022-08-28T20:15:17.758Z,50.57
2022-08-28T20:17:49.672Z,51.00
2022-08-28T20:20:18.776Z,50.81
2022-08-28T20:22:46.441Z,51.35
2022-08-28T20:25:14.807Z,51.47
2022-08-28T20:27:42.548Z,51.67
2022-08-28T20:30:11.009Z,51.73
2022-08-28T20:32:39.985Z,52.04
2022-08-28T20:35:09.176Z,52.80
2022-08-28T20:37:44.555Z,53.10
2022-08-28T20:40:14.939Z,53.70
2022-08-28T20:42:42.227Z,53.71
2022-08-28T20:45:09.671Z,54.23
2022-08-28T20:47:39.969Z,53.53
2022-08-28T20:50:07.502Z,53.55
2022-08-28T20:52:34.801Z,54.11
2022-08-28T20:55:02.342Z,54.49
2022-08-28T20:57:29.873Z,54.40
2022-08-28T20:59:57.395Z,54.81
2022-08-28T21:02:28.675Z,55.68
2022-08-28T21:04:56.241Z,55.09
2022-08-28T21:07:24.527Z,55.92
2022-08-28T21:10:04.879Z,55.11
2022-08-28T21:12:36.330Z,55.10
2022-08-28T21:15:05.204Z,55.26
2022-08-28T21:17:32.680Z,55.65
2022-08-28T21:20:14.842Z,55.34
2022-08-28T21:22:43.192Z,56.48
2022-08-28T21:25:14.836Z,55.78
2022-08-28T21:27:42.641Z,55.91
2022-08-28T21:30:11.993Z,55.33
2022-08-28T21:32:39.545Z,56.09
2022-08-28T21:35:08.301Z,56.64
2022-08-28T21:37:36.591Z,56.88
2022-08-28T21:40:05.210Z,57.73
2022-08-28T21:42:32.495Z,57.03
2022-08-28T21:45:03.236Z,58.43
2022-08-28T21:47:31.422Z,58.26
2022-08-28T21:49:59.079Z,58.25
2022-08-28T21:52:27.872Z,59.18
2022-08-28T21:55:02.348Z,59.13
2022-08-28T21:57:30.364Z,59.04
2022-08-28T21:59:58.566Z,59.06
2022-08-28T22:02:25.876Z,58.29
2022-08-28T22:04:53.809Z,57.91
2022-08-28T22:07:21.148Z,58.53
2022-08-28T22:09:49.968Z,57.80
2022-08-28T22:12:18.279Z,57.51
2022-08-28T22:14:46.218Z,59.55
2022-08-28T22:17:15.091Z,58.94
2022-08-28T22:19:42.726Z,58.84
2022-08-28T22:22:32.734Z,59.63
2022-08-28T22:25:00.326Z,59.62
2022-08-28T22:27:27.892Z,61.67
2022-08-28T22:29:55.694Z,60.87
2022-08-28T22:32:25.764Z,60.11
2022-08-28T22:34:54.214Z,62.01
2022-08-28T22:37:21.785Z,61.83
2022-08-28T22:39:49.480Z,60.80
2022-08-28T22:42:16.705Z,60.28
2022-08-28T22:44:43.940Z,61.03
2022-08-28T22:47:11.453Z,60.79
2022-08-28T22:49:39.672Z,61.74
2022-08-28T22:52:09.303Z,61.38
2022-08-28T22:54:36.825Z,61.73
2022-08-28T22:57:05.819Z,61.32
2022-08-28T22:59:33.526Z,61.98
2022-08-28T23:02:01.264Z,62.44
2022-08-28T23:04:28.578Z,61.57
2022-08-28T23:06:55.814Z,60.49
2022-08-28T23:09:23.281Z,60.48
2022-08-28T23:11:50.558Z,61.44
2022-08-28T23:14:17.878Z,61.51
2022-08-28T23:16:45.495Z,61.78
2022-08-28T23:19:13.544Z,62.73
2022-08-28T23:21:43.872Z,62.41
2022-08-28T23:24:12.618Z,63.22
2022-08-28T23:26:39.989Z,62.34
2022-08-28T23:29:07.274Z,62.00
2022-08-28T23:31:35.055Z,61.48
2022-08-28T23:34:02.785Z,62.47
2022-08-28T23:36:32.529Z,62.86
2022-08-28T23:39:03.240Z,63.17
2022-08-28T23:41:31.062Z,63.55
2022-08-28T23:43:58.279Z,62.84
2022-08-28T23:46:25.806Z,62.02
2022-08-28T23:48:53.012Z,62.78
2022-08-28T23:51:21.708Z,63.01
2022-08-28T23:53:49.268Z,64.29
2022-08-28T23:56:17.347Z,63.57
2022-08-28T23:58:45.615Z,64.69
